Speedwell, Virginia
Current Conditions -  °F | °C
As of 9:35 AM on Tuesday 21 Oct 2014 (Local Time) from KMKJ Reporting Station
Overcast Overcast  
Wind Chill: 52°   Ceiling: 600
Heat Index: 52°   Visibility: 7mi
Dew Point: 49°   Wind: 9mph
Humidity: 90%   Direction: 250°WSW
Pressure: 29.99"   Gusts: NA
Location:  36.81°N, 81.17°W
Report Text: KMKJ 211335Z AUTO 25008KT 210V270 7SM OVC006 11/10 A2999 RMK AO2 T01100095
Loading
Personal Weather Stations






























Interactive Weather Map
Tropical Storm Tracking
New forecast layout! Learn more

10-Day Weather Forecast

Advertisements
Track Severe Weather on mobile